Time;durP1;ratioP1;P1;durP2;ratioP2;P2;SDS_P1;SDS_P2;PMS_P1;PMS_P2;Temp;Humidity;BMP_temperature;BMP_pressure;BME280_temperature;BME280_humidity;BME280_pressure;Samples;Min_cycle;Max_cycle;Signal;HPM_P1;HPM_P2
2021/04/19 00:01:27;;;;;;;2.60;2.40;;;21.20;46.50;;;;;;5007727;28;20427;-75
2021/04/19 00:03:53;;;;;;;3.17;2.20;;;21.10;46.60;;;;;;5007462;28;20425;-74
2021/04/19 00:06:19;;;;;;;2.60;2.40;;;21.10;46.90;;;;;;5009499;28;20410;-74
2021/04/19 00:08:45;;;;;;;4.45;2.70;;;21.10;46.90;;;;;;5007035;28;20411;-74
2021/04/19 00:11:11;;;;;;;2.97;2.40;;;21.10;46.50;;;;;;5011653;28;20891;-74
2021/04/19 00:13:37;;;;;;;2.75;2.40;;;21.10;46.70;;;;;;5020865;28;20419;-74
2021/04/19 00:16:05;;;;;;;2.63;2.35;;;21.10;46.60;;;;;;5012813;28;20415;-73
2021/04/19 00:18:31;;;;;;;2.40;2.15;;;21.10;46.40;;;;;;5006575;28;20416;-73
2021/04/19 00:20:57;;;;;;;2.60;2.17;;;21.10;46.50;;;;;;5021361;28;20920;-73
2021/04/19 00:23:24;;;;;;;4.70;2.40;;;21.10;46.50;;;;;;5016112;28;20941;-73
2021/04/19 00:25:50;;;;;;;3.75;2.40;;;21.10;46.80;;;;;;5013434;28;20421;-72
2021/04/19 00:28:16;;;;;;;3.27;2.33;;;21.10;46.70;;;;;;5010038;28;20419;-73
2021/04/19 00:30:42;;;;;;;2.63;2.42;;;21.00;46.70;;;;;;5006435;28;20417;-73
2021/04/19 00:33:09;;;;;;;4.45;2.80;;;21.00;46.60;;;;;;5009256;28;21477;-72
2021/04/19 00:35:35;;;;;;;3.10;2.80;;;21.00;46.40;;;;;;5018412;28;20444;-74
2021/04/19 00:38:01;;;;;;;3.20;2.90;;;21.00;46.60;;;;;;4996710;28;20431;-72
2021/04/19 00:40:27;;;;;;;2.80;2.60;;;21.00;46.50;;;;;;4998691;28;21031;-73
2021/04/19 00:42:54;;;;;;;2.70;2.40;;;21.00;46.40;;;;;;4998974;28;20559;-75
2021/04/19 00:45:20;;;;;;;3.83;2.30;;;21.00;46.40;;;;;;5022707;28;20423;-73
2021/04/19 00:47:46;;;;;;;2.80;2.60;;;21.00;46.60;;;;;;5004032;28;21363;-73
2021/04/19 00:50:18;;;;;;;5.00;2.60;;;21.10;46.40;;;;;;5023843;28;20451;-74
2021/04/19 00:52:44;;;;;;;2.88;2.50;;;21.10;46.30;;;;;;5004833;28;20905;-73
2021/04/19 00:55:11;;;;;;;5.40;3.00;;;21.10;46.00;;;;;;5002320;28;20991;-74
2021/04/19 00:57:38;;;;;;;2.95;2.42;;;21.20;45.80;;;;;;5013128;28;20439;-74
2021/04/19 01:00:05;;;;;;;3.95;2.60;;;21.20;45.70;;;;;;4969735;28;20436;-77
2021/04/19 01:02:32;;;;;;;2.42;2.33;;;21.20;45.60;;;;;;4968574;28;20424;-76
2021/04/19 01:04:58;;;;;;;5.17;2.90;;;21.20;45.60;;;;;;5013551;28;20420;-73
2021/04/19 01:07:25;;;;;;;4.30;2.42;;;21.20;45.50;;;;;;5002510;28;20419;-75
2021/04/19 01:09:51;;;;;;;3.95;2.40;;;21.30;45.60;;;;;;5016203;28;20441;-74
2021/04/19 01:12:17;;;;;;;2.95;2.50;;;21.30;45.70;;;;;;5004024;28;20429;-74
2021/04/19 01:14:43;;;;;;;2.60;2.40;;;21.30;46.00;;;;;;5021984;28;20417;-73
2021/04/19 01:17:10;;;;;;;2.95;2.60;;;21.20;46.10;;;;;;5003270;28;20414;-74
2021/04/19 01:19:36;;;;;;;5.70;2.70;;;21.20;46.00;;;;;;5013298;28;21004;-73
2021/04/19 01:22:03;;;;;;;3.50;3.30;;;21.20;46.20;;;;;;5006726;28;20426;-73
2021/04/19 01:24:29;;;;;;;3.20;2.70;;;21.20;46.90;;;;;;5011586;28;20440;-74
2021/04/19 01:26:55;;;;;;;2.92;2.72;;;21.20;46.00;;;;;;5008716;28;20433;-74
2021/04/19 01:29:21;;;;;;;3.40;3.10;;;21.10;45.90;;;;;;5004785;28;20432;-73
2021/04/19 01:31:48;;;;;;;4.82;3.22;;;21.10;46.00;;;;;;5010318;28;20413;-75
2021/04/19 01:34:14;;;;;;;5.30;2.90;;;21.10;45.90;;;;;;5013285;28;20407;-75
2021/04/19 01:36:40;;;;;;;3.80;3.33;;;21.10;45.90;;;;;;5009123;28;20408;-73
2021/04/19 01:39:07;;;;;;;3.60;3.25;;;21.10;46.10;;;;;;5007123;28;20435;-74
2021/04/19 01:41:33;;;;;;;4.05;2.70;;;21.10;46.10;;;;;;5007777;28;20417;-76
2021/04/19 01:43:59;;;;;;;4.13;3.25;;;21.10;46.20;;;;;;5003886;28;21005;-73
2021/04/19 01:46:25;;;;;;;3.20;2.80;;;21.10;46.10;;;;;;5015615;28;20414;-74
2021/04/19 01:48:51;;;;;;;3.78;2.70;;;21.10;46.10;;;;;;5011767;28;20493;-77
2021/04/19 01:51:18;;;;;;;3.20;2.90;;;21.10;45.60;;;;;;5010948;28;20418;-74
2021/04/19 01:53:44;;;;;;;3.20;2.90;;;21.10;45.50;;;;;;5011504;28;20418;-74
2021/04/19 01:56:11;;;;;;;3.20;2.90;;;21.20;45.50;;;;;;5012064;28;20417;-73
2021/04/19 01:58:37;;;;;;;3.80;3.00;;;21.20;45.30;;;;;;5016931;28;20423;-75
2021/04/19 02:01:03;;;;;;;3.25;2.72;;;21.20;45.20;;;;;;4999660;28;20426;-75
2021/04/19 02:03:53;;;;;;;3.00;2.70;;;21.20;45.20;;;;;;5008398;28;20413;-75
2021/04/19 02:06:23;;;;;;;4.53;2.70;;;21.20;45.20;;;;;;4999633;28;20482;-73
2021/04/19 02:08:53;;;;;;;5.90;3.50;;;21.20;45.40;;;;;;5003567;28;20432;-74
2021/04/19 02:11:27;;;;;;;3.30;3.10;;;21.20;45.40;;;;;;5010112;28;20501;-74
2021/04/19 02:13:57;;;;;;;5.90;3.05;;;21.20;45.60;;;;;;4992613;28;21905;-74
2021/04/19 02:16:26;;;;;;;3.55;2.75;;;21.10;45.50;;;;;;5006330;28;20411;-74
2021/04/19 02:18:59;;;;;;;3.42;3.13;;;21.10;45.50;;;;;;5006956;28;20415;-75
2021/04/19 02:21:29;;;;;;;4.47;3.40;;;21.10;45.60;;;;;;5005073;28;20648;-75
2021/04/19 02:23:57;;;;;;;3.50;3.20;;;21.10;45.50;;;;;;5006608;28;20415;-75
2021/04/19 02:26:26;;;;;;;3.08;2.88;;;21.00;45.50;;;;;;5009963;28;20425;-75
2021/04/19 02:28:55;;;;;;;4.70;3.30;;;21.10;45.70;;;;;;5022169;28;20415;-79
2021/04/19 02:31:22;;;;;;;3.10;2.90;;;21.00;45.80;;;;;;5007872;28;20415;-72
2021/04/19 02:33:48;;;;;;;3.88;3.10;;;21.00;45.60;;;;;;5006469;28;20432;-74
2021/04/19 02:36:14;;;;;;;4.43;3.00;;;21.00;45.80;;;;;;5013868;28;20415;-74
2021/04/19 02:38:41;;;;;;;3.88;2.80;;;21.00;45.80;;;;;;5010559;28;20427;-73
2021/04/19 02:41:09;;;;;;;3.72;3.08;;;21.00;45.90;;;;;;5009358;28;20423;-74
2021/04/19 02:43:37;;;;;;;4.10;2.77;;;21.00;45.80;;;;;;4989401;28;20434;-75
2021/04/19 02:46:03;;;;;;;3.40;3.10;;;21.00;45.90;;;;;;5003853;28;20421;-74
2021/04/19 02:48:30;;;;;;;3.45;3.15;;;20.90;45.70;;;;;;4988741;28;20419;-75
2021/04/19 02:50:56;;;;;;;4.93;3.30;;;20.90;45.70;;;;;;5012102;28;20516;-74
2021/04/19 02:53:22;;;;;;;3.50;3.20;;;20.90;45.70;;;;;;5005077;28;20423;-73
2021/04/19 02:55:48;;;;;;;3.40;3.15;;;20.90;45.80;;;;;;5010200;28;20468;-73
2021/04/19 02:58:16;;;;;;;3.40;3.10;;;20.90;45.90;;;;;;5006408;28;20411;-74
2021/04/19 03:00:45;;;;;;;4.00;2.80;;;20.90;46.10;;;;;;5023727;28;20411;-75
2021/04/19 03:03:13;;;;;;;4.07;2.90;;;20.90;46.10;;;;;;4973628;28;20414;-75
2021/04/19 03:05:39;;;;;;;3.47;3.17;;;20.90;46.10;;;;;;5005119;28;20420;-74
2021/04/19 03:08:07;;;;;;;4.22;3.83;;;20.90;46.30;;;;;;4983301;28;20426;-76
2021/04/19 03:10:35;;;;;;;3.88;2.88;;;20.90;46.60;;;;;;5013365;28;20415;-73
2021/04/19 03:13:04;;;;;;;3.60;3.20;;;20.90;46.40;;;;;;5008301;28;21204;-74
2021/04/19 03:15:33;;;;;;;6.63;3.25;;;20.90;46.80;;;;;;5008324;28;20428;-73
2021/04/19 03:18:00;;;;;;;4.20;3.10;;;20.80;46.80;;;;;;5011189;28;20420;-75
2021/04/19 03:20:29;;;;;;;3.80;2.97;;;20.90;46.90;;;;;;5008376;28;21130;-74
2021/04/19 03:22:55;;;;;;;4.00;3.40;;;20.90;47.10;;;;;;5009381;28;20425;-75
2021/04/19 03:25:21;;;;;;;5.60;3.30;;;20.90;47.20;;;;;;5006048;28;20447;-74
2021/04/19 03:27:48;;;;;;;5.90;4.35;;;20.90;47.20;;;;;;5008560;28;20414;-74
2021/04/19 03:30:15;;;;;;;4.03;3.63;;;21.00;47.30;;;;;;4994874;28;20429;-74
2021/04/19 03:32:43;;;;;;;5.13;4.10;;;21.00;47.90;;;;;;5000993;28;20413;-73
2021/04/19 03:35:12;;;;;;;3.67;3.20;;;21.00;47.00;;;;;;4995266;28;20430;-74
2021/04/19 03:37:39;;;;;;;4.10;3.70;;;21.10;46.60;;;;;;5010441;28;20407;-76
2021/04/19 03:40:07;;;;;;;6.70;3.65;;;21.10;46.40;;;;;;5024789;28;20412;-76
2021/04/19 03:42:33;;;;;;;6.87;3.50;;;21.20;46.50;;;;;;5024790;28;20461;-75
2021/04/19 03:44:59;;;;;;;4.03;3.60;;;21.20;46.30;;;;;;5018351;28;20536;-73
2021/04/19 03:47:25;;;;;;;3.63;3.33;;;21.20;46.20;;;;;;5013509;28;20435;-74
2021/04/19 03:49:54;;;;;;;5.05;3.13;;;21.30;46.20;;;;;;4999914;28;20449;-74
2021/04/19 03:52:23;;;;;;;5.75;4.03;;;21.30;46.00;;;;;;5008341;28;20416;-74
2021/04/19 03:54:51;;;;;;;4.85;3.90;;;21.30;46.00;;;;;;5009825;28;20426;-74
2021/04/19 03:57:19;;;;;;;7.32;3.55;;;21.30;46.00;;;;;;5006227;28;22101;-73
2021/04/19 03:59:45;;;;;;;3.90;3.33;;;21.30;45.90;;;;;;5005954;28;20417;-75
2021/04/19 04:02:11;;;;;;;4.40;4.00;;;21.30;45.80;;;;;;5013642;28;20519;-75
2021/04/19 04:04:37;;;;;;;3.95;3.65;;;21.30;45.70;;;;;;5003911;28;20421;-75
2021/04/19 04:07:04;;;;;;;5.95;3.83;;;21.30;45.70;;;;;;5010429;28;20415;-72
2021/04/19 04:09:31;;;;;;;4.78;3.67;;;21.30;45.80;;;;;;5006244;28;20842;-76
2021/04/19 04:11:57;;;;;;;4.82;3.53;;;21.20;45.80;;;;;;5019322;28;20474;-75
2021/04/19 04:14:23;;;;;;;4.72;4.32;;;21.20;45.90;;;;;;5010126;28;20426;-74
2021/04/19 04:16:49;;;;;;;4.00;3.60;;;21.20;46.00;;;;;;5012158;28;20983;-73
2021/04/19 04:19:15;;;;;;;4.20;3.70;;;21.20;46.30;;;;;;5011600;28;20428;-72
2021/04/19 04:21:42;;;;;;;5.50;4.00;;;21.20;46.30;;;;;;5009463;28;20411;-75
2021/04/19 04:24:08;;;;;;;6.20;3.90;;;21.20;46.40;;;;;;5013292;28;20436;-74
2021/04/19 04:26:35;;;;;;;5.05;3.70;;;21.20;46.30;;;;;;5008294;28;20420;-72
2021/04/19 04:29:01;;;;;;;4.13;3.73;;;21.20;46.30;;;;;;5009996;28;20476;-73
2021/04/19 04:31:28;;;;;;;5.80;4.00;;;21.20;46.40;;;;;;5011974;28;20420;-75
2021/04/19 04:33:54;;;;;;;4.55;4.10;;;21.20;46.20;;;;;;5012573;28;20428;-74
2021/04/19 04:36:20;;;;;;;4.57;4.03;;;21.20;46.10;;;;;;5014382;28;20451;-74
2021/04/19 04:38:46;;;;;;;8.85;3.85;;;21.20;46.20;;;;;;5002466;28;20492;-73
2021/04/19 04:41:12;;;;;;;4.95;4.20;;;21.20;46.10;;;;;;5017665;28;20416;-74
2021/04/19 04:43:40;;;;;;;6.35;4.10;;;21.20;46.40;;;;;;5000782;28;20452;-75
2021/04/19 04:46:08;;;;;;;7.45;3.80;;;21.20;45.70;;;;;;5007515;28;20428;-75
2021/04/19 04:48:38;;;;;;;5.60;5.00;;;21.20;45.70;;;;;;5030484;28;24780;-74
2021/04/19 04:51:10;;;;;;;7.47;4.45;;;21.30;45.50;;;;;;5018771;28;20427;-73
2021/04/19 04:53:37;;;;;;;4.45;4.07;;;21.30;45.40;;;;;;4991705;28;20425;-75
2021/04/19 04:56:03;;;;;;;7.97;4.53;;;21.30;45.40;;;;;;4993572;28;21111;-75
2021/04/19 04:58:30;;;;;;;7.03;4.57;;;21.30;45.40;;;;;;4996035;28;20415;-72
2021/04/19 05:00:57;;;;;;;5.15;4.28;;;21.30;45.30;;;;;;5008952;28;21559;-74
2021/04/19 05:03:23;;;;;;;4.60;4.13;;;21.30;45.30;;;;;;5010354;28;20419;-75
2021/04/19 05:05:51;;;;;;;7.38;5.10;;;21.30;45.30;;;;;;5005281;28;22281;-73
2021/04/19 05:08:17;;;;;;;8.60;4.72;;;21.20;45.30;;;;;;5002652;28;20424;-74
2021/04/19 05:10:43;;;;;;;5.90;5.05;;;21.20;45.60;;;;;;5006057;28;20411;-74
2021/04/19 05:13:11;;;;;;;5.88;4.78;;;21.20;45.60;;;;;;4998532;28;20419;-73
2021/04/19 05:15:41;;;;;;;5.72;4.55;;;21.20;45.70;;;;;;5018195;28;20418;-74
2021/04/19 05:18:11;;;;;;;6.90;4.50;;;21.20;45.50;;;;;;5009989;28;20481;-75
2021/04/19 05:20:37;;;;;;;5.00;4.50;;;21.10;46.40;;;;;;4999044;28;20417;-75
2021/04/19 05:23:03;;;;;;;8.88;5.13;;;21.10;45.90;;;;;;5004374;28;20434;-76
2021/04/19 05:25:29;;;;;;;5.53;4.93;;;21.10;45.80;;;;;;4990543;28;20706;-75
2021/04/19 05:27:55;;;;;;;5.97;5.17;;;21.10;45.60;;;;;;5014431;28;20423;-77
2021/04/19 05:30:23;;;;;;;8.75;5.68;;;21.10;45.40;;;;;;5016598;28;20415;-76
2021/04/19 05:32:49;;;;;;;6.13;5.40;;;21.10;45.30;;;;;;5017151;28;20420;-73
2021/04/19 05:35:17;;;;;;;10.03;5.90;;;21.10;45.30;;;;;;5007263;28;20424;-74
2021/04/19 05:37:44;;;;;;;6.30;5.28;;;21.10;45.30;;;;;;5011950;28;20476;-74
2021/04/19 05:40:11;;;;;;;8.53;5.57;;;21.10;45.30;;;;;;5004214;28;20439;-75
2021/04/19 05:42:37;;;;;;;8.03;5.40;;;21.10;45.10;;;;;;5008591;28;20411;-74
2021/04/19 05:45:04;;;;;;;8.18;6.10;;;21.00;45.00;;;;;;5009996;28;20420;-74
2021/04/19 05:47:31;;;;;;;7.63;5.90;;;21.10;44.90;;;;;;5006303;28;20462;-76
2021/04/19 05:49:57;;;;;;;6.47;5.00;;;21.10;44.90;;;;;;5002367;28;20433;-78
2021/04/19 05:52:24;;;;;;;8.87;5.40;;;21.10;44.80;;;;;;5011988;28;20419;-76
2021/04/19 05:54:50;;;;;;;7.75;6.30;;;21.10;44.70;;;;;;4997924;28;21175;-73
2021/04/19 05:57:20;;;;;;;8.15;5.70;;;21.10;44.70;;;;;;4986988;28;20419;-74
2021/04/19 05:59:49;;;;;;;8.35;6.30;;;21.10;44.70;;;;;;4997583;28;20498;-74
2021/04/19 06:02:18;;;;;;;7.80;5.25;;;21.10;44.70;;;;;;4996611;28;20421;-74
2021/04/19 06:04:47;;;;;;;7.85;5.57;;;21.10;44.80;;;;;;5007684;28;20767;-74
2021/04/19 06:07:16;;;;;;;7.80;5.07;;;21.10;45.80;;;;;;5006821;28;20424;-74
2021/04/19 06:09:53;;;;;;;7.55;5.00;;;21.10;45.10;;;;;;4997367;28;20788;-75
2021/04/19 06:12:21;;;;;;;6.55;4.90;;;21.10;45.10;;;;;;4998509;28;20566;-76
2021/04/19 06:14:47;;;;;;;7.47;5.32;;;21.10;45.20;;;;;;5020891;28;20498;-75
2021/04/19 06:17:13;;;;;;;5.10;4.30;;;21.10;45.20;;;;;;5000790;28;20412;-73
2021/04/19 06:19:42;;;;;;;5.57;4.90;;;21.10;45.20;;;;;;5008653;28;20901;-73
2021/04/19 06:22:09;;;;;;;6.93;4.80;;;21.10;45.30;;;;;;4986049;28;20453;-74
2021/04/19 06:24:35;;;;;;;4.20;3.90;;;21.10;45.30;;;;;;4998986;28;20487;-77
2021/04/19 06:27:02;;;;;;;7.07;4.20;;;21.10;45.20;;;;;;4995588;28;20426;-73
2021/04/19 06:29:28;;;;;;;5.68;4.40;;;21.20;45.40;;;;;;5012151;28;20425;-76
2021/04/19 06:31:56;;;;;;;6.30;4.40;;;21.20;45.50;;;;;;4996233;28;20495;-70
2021/04/19 06:34:22;;;;;;;5.80;4.00;;;21.20;45.30;;;;;;5008674;28;20447;-76
2021/04/19 06:36:49;;;;;;;4.10;3.80;;;21.20;45.30;;;;;;5002373;28;20473;-75
2021/04/19 06:39:16;;;;;;;7.70;4.28;;;21.20;45.30;;;;;;5006617;28;20446;-75
2021/04/19 06:41:42;;;;;;;4.28;3.88;;;21.20;45.20;;;;;;5008616;28;20976;-74
2021/04/19 06:44:09;;;;;;;5.30;3.70;;;21.20;45.40;;;;;;5010196;28;20407;-80
2021/04/19 06:46:36;;;;;;;4.03;3.70;;;21.20;45.50;;;;;;4997379;28;20414;-74
2021/04/19 06:49:02;;;;;;;4.57;4.18;;;21.20;45.70;;;;;;4992386;28;20426;-74
2021/04/19 06:51:29;;;;;;;3.83;3.60;;;21.10;45.70;;;;;;5002355;28;20428;-72
2021/04/19 06:53:56;;;;;;;4.70;3.40;;;21.10;45.80;;;;;;5009079;28;20426;-75
2021/04/19 06:56:23;;;;;;;4.15;3.60;;;21.10;45.90;;;;;;5000752;28;20420;-77
2021/04/19 06:58:49;;;;;;;4.20;3.90;;;21.10;45.80;;;;;;5003252;28;20848;-77
2021/04/19 07:01:18;;;;;;;3.30;3.10;;;21.10;45.70;;;;;;4996283;28;20533;-76
2021/04/19 07:03:45;;;;;;;3.90;3.20;;;21.10;45.70;;;;;;5004408;28;20407;-73
2021/04/19 07:06:11;;;;;;;3.70;3.40;;;21.10;45.60;;;;;;5002500;28;20432;-76
2021/04/19 07:08:41;;;;;;;3.33;3.03;;;21.10;45.70;;;;;;5003680;28;20423;-73
2021/04/19 07:11:07;;;;;;;3.13;2.83;;;21.20;45.70;;;;;;4995590;28;20421;-76
2021/04/19 07:13:36;;;;;;;3.20;2.90;;;21.20;45.60;;;;;;5002874;28;20427;-75
2021/04/19 07:16:02;;;;;;;3.20;2.90;;;21.20;45.70;;;;;;4988870;28;20421;-73
2021/04/19 07:18:29;;;;;;;3.00;2.80;;;21.20;45.90;;;;;;4987901;28;20426;-74
2021/04/19 07:20:55;;;;;;;3.33;3.05;;;21.20;46.00;;;;;;4997936;28;20531;-76
2021/04/19 07:23:21;;;;;;;3.00;2.80;;;21.20;46.00;;;;;;5002286;28;20507;-75
2021/04/19 07:25:48;;;;;;;2.60;2.50;;;21.10;46.10;;;;;;4991387;28;20430;-76
2021/04/19 07:28:14;;;;;;;2.72;2.53;;;21.10;46.10;;;;;;5012579;28;21433;-74
2021/04/19 07:30:40;;;;;;;2.75;2.65;;;21.10;46.00;;;;;;4993405;28;20423;-73
2021/04/19 07:33:07;;;;;;;3.17;2.97;;;21.10;46.10;;;;;;4983596;28;20854;-74
2021/04/19 07:35:34;;;;;;;3.30;3.10;;;21.10;46.00;;;;;;5011073;28;20419;-73
2021/04/19 07:38:01;;;;;;;2.70;2.60;;;21.10;46.00;;;;;;4995189;28;20423;-74
2021/04/19 07:40:28;;;;;;;3.70;3.40;;;21.10;45.90;;;;;;5006347;28;21528;-74
2021/04/19 07:43:08;;;;;;;2.30;2.20;;;21.20;45.90;;;;;;4986540;28;20420;-75
2021/04/19 07:45:34;;;;;;;3.28;2.85;;;21.20;45.80;;;;;;4967465;28;20443;-73
2021/04/19 07:48:00;;;;;;;3.10;2.90;;;21.20;45.70;;;;;;5002188;28;20990;-74
2021/04/19 07:50:27;;;;;;;3.20;3.00;;;21.20;45.70;;;;;;4998073;28;20427;-75
2021/04/19 07:52:55;;;;;;;2.90;2.70;;;21.20;45.70;;;;;;4993905;28;20423;-73
2021/04/19 07:55:22;;;;;;;3.00;2.80;;;21.20;45.80;;;;;;4992954;28;20428;-75
2021/04/19 07:57:49;;;;;;;3.20;3.00;;;21.20;45.90;;;;;;5001145;28;20430;-73
2021/04/19 08:00:23;;;;;;;2.83;2.70;;;21.20;45.90;;;;;;5000046;28;20418;-74
2021/04/19 08:02:57;;;;;;;2.80;2.65;;;21.20;46.00;;;;;;5002829;28;20432;-74
2021/04/19 08:05:33;;;;;;;3.00;2.80;;;21.20;46.10;;;;;;5002812;28;20434;-74
2021/04/19 08:08:00;;;;;;;2.88;2.70;;;21.20;46.10;;;;;;4996802;28;20446;-76
2021/04/19 08:10:26;;;;;;;3.05;2.85;;;21.20;46.00;;;;;;4996104;28;20445;-75
2021/04/19 08:13:01;;;;;;;3.40;3.20;;;21.20;46.20;;;;;;5005015;28;20423;-76
2021/04/19 08:15:27;;;;;;;2.72;2.63;;;21.10;46.10;;;;;;5006762;28;20414;-75
2021/04/19 08:17:59;;;;;;;3.15;2.97;;;21.10;46.10;;;;;;5001718;28;20426;-74
2021/04/19 08:20:25;;;;;;;3.00;2.80;;;21.20;46.10;;;;;;5011122;28;20410;-77
2021/04/19 08:22:52;;;;;;;3.30;3.10;;;21.20;45.90;;;;;;5021933;28;20413;-80
2021/04/19 08:25:20;;;;;;;3.40;3.20;;;21.10;46.00;;;;;;5021314;28;20538;-74
2021/04/19 08:27:48;;;;;;;2.67;2.47;;;21.20;46.00;;;;;;4979904;28;20436;-73
2021/04/19 08:30:15;;;;;;;3.05;2.85;;;21.20;45.90;;;;;;4997647;28;20412;-75
2021/04/19 08:32:42;;;;;;;3.13;2.60;;;21.20;45.90;;;;;;4999604;28;20407;-74
2021/04/19 08:35:09;;;;;;;3.30;3.00;;;21.20;45.90;;;;;;5009454;28;20419;-73
2021/04/19 08:37:35;;;;;;;2.58;2.47;;;21.20;45.90;;;;;;5004273;28;20421;-79
2021/04/19 08:40:01;;;;;;;2.92;2.72;;;21.30;45.90;;;;;;4998736;28;20512;-77
2021/04/19 08:42:29;;;;;;;3.13;2.92;;;21.30;46.10;;;;;;5004728;28;20411;-75
2021/04/19 08:44:56;;;;;;;2.75;2.55;;;21.20;46.20;;;;;;4982109;28;20910;-75
2021/04/19 08:47:26;;;;;;;2.83;2.67;;;21.20;46.30;;;;;;5009299;28;20418;-74
2021/04/19 08:49:53;;;;;;;2.80;2.60;;;21.20;46.40;;;;;;4967329;28;20421;-73
2021/04/19 08:52:19;;;;;;;2.80;2.70;;;21.20;47.30;;;;;;5000086;28;20465;-73
2021/04/19 08:54:45;;;;;;;3.05;2.60;;;21.30;46.40;;;;;;4996652;28;20462;-72
2021/04/19 08:57:11;;;;;;;2.28;2.17;;;21.30;46.30;;;;;;5016411;28;21108;-76
2021/04/19 08:59:38;;;;;;;3.17;2.97;;;21.30;46.30;;;;;;4989217;28;20974;-73
2021/04/19 09:02:04;;;;;;;3.60;2.42;;;21.30;46.20;;;;;;4983540;28;20411;-72
2021/04/19 09:04:31;;;;;;;3.40;2.30;;;21.30;46.30;;;;;;4995686;28;20408;-74
2021/04/19 09:06:58;;;;;;;3.20;2.88;;;21.30;46.30;;;;;;4985513;28;20437;-75
2021/04/19 09:09:35;;;;;;;2.70;2.50;;;21.20;46.20;;;;;;4996280;28;20433;-75
2021/04/19 09:12:20;;;;;;;2.90;2.70;;;21.30;46.20;;;;;;4999110;28;20421;-74
2021/04/19 09:14:48;;;;;;;2.60;2.50;;;21.40;46.10;;;;;;4990311;28;21453;-74
2021/04/19 09:17:23;;;;;;;3.10;2.90;;;21.50;46.00;;;;;;5003209;28;20440;-74
2021/04/19 09:19:55;;;;;;;3.00;2.80;;;21.50;45.80;;;;;;5000255;28;20433;-75
2021/04/19 09:22:21;;;;;;;2.85;2.65;;;21.50;45.80;;;;;;4975836;28;20911;-74
2021/04/19 09:24:59;;;;;;;2.90;2.70;;;21.50;45.70;;;;;;5001672;28;20427;-75
2021/04/19 09:27:41;;;;;;;2.53;2.40;;;21.60;45.80;;;;;;4989701;28;20910;-77
2021/04/19 09:30:26;;;;;;;2.60;2.40;;;21.60;45.80;;;;;;4994091;28;20407;-73
2021/04/19 09:33:15;;;;;;;3.38;3.17;;;21.50;45.70;;;;;;5001877;28;20486;-75
2021/04/19 09:35:42;;;;;;;2.50;2.40;;;21.60;45.70;;;;;;4999431;28;20447;-75
2021/04/19 09:38:08;;;;;;;2.70;2.60;;;21.50;45.70;;;;;;4999283;28;21058;-74
2021/04/19 09:40:45;;;;;;;3.15;2.95;;;21.50;45.70;;;;;;5007684;28;20419;-73
2021/04/19 09:43:11;;;;;;;2.70;2.50;;;21.50;46.00;;;;;;4993035;28;20502;-74
2021/04/19 09:45:52;;;;;;;2.85;2.65;;;21.40;46.00;;;;;;5010549;28;20415;-73
2021/04/19 09:48:40;;;;;;;2.47;2.38;;;21.40;46.20;;;;;;4996518;28;20419;-73
2021/04/19 09:51:12;;;;;;;2.50;2.40;;;21.30;46.30;;;;;;4996061;28;20427;-73
2021/04/19 09:53:38;;;;;;;3.00;2.80;;;21.20;46.50;;;;;;4993598;28;20901;-74
2021/04/19 09:56:05;;;;;;;3.10;2.90;;;21.20;46.50;;;;;;5004554;28;21028;-72
2021/04/19 09:58:31;;;;;;;2.75;2.65;;;21.20;46.60;;;;;;4987086;28;21008;-73
2021/04/19 10:00:58;;;;;;;2.90;2.70;;;21.20;46.60;;;;;;5013680;28;20457;-77
2021/04/19 10:03:25;;;;;;;2.60;2.50;;;21.20;46.60;;;;;;4997513;28;20429;-74
2021/04/19 10:05:51;;;;;;;3.13;2.90;;;21.20;46.70;;;;;;5003767;28;20452;-74
2021/04/19 10:08:17;;;;;;;2.70;2.60;;;21.20;46.70;;;;;;4967848;28;20419;-73
2021/04/19 10:10:43;;;;;;;2.70;2.50;;;21.20;46.70;;;;;;4993929;28;20432;-75
2021/04/19 10:13:10;;;;;;;2.95;2.72;;;21.20;46.80;;;;;;4988279;28;20426;-77
2021/04/19 10:15:36;;;;;;;3.78;2.70;;;21.20;46.30;;;;;;5004617;28;20749;-75
2021/04/19 10:18:10;;;;;;;7.80;3.90;;;21.20;46.50;;;;;;5004592;28;21026;-75
2021/04/19 10:20:37;;;;;;;8.50;3.60;;;21.20;46.20;;;;;;5002554;28;20444;-72
2021/04/19 10:23:07;;;;;;;7.83;4.00;;;21.30;46.50;;;;;;4992980;28;20415;-73
2021/04/19 10:25:34;;;;;;;12.20;4.28;;;21.30;46.40;;;;;;4997577;28;20456;-73
2021/04/19 10:28:00;;;;;;;8.63;3.70;;;21.30;46.30;;;;;;5002324;28;20494;-72
2021/04/19 10:30:27;;;;;;;8.80;4.10;;;21.30;46.30;;;;;;5006098;28;20407;-71
2021/04/19 10:32:53;;;;;;;8.25;4.00;;;21.40;46.30;;;;;;5001747;28;20428;-73
2021/04/19 10:35:30;;;;;;;13.15;4.40;;;21.40;46.40;;;;;;5003857;28;20416;-72
2021/04/19 10:37:57;;;;;;;10.15;3.97;;;21.40;46.40;;;;;;5001480;28;20415;-73
2021/04/19 10:40:23;;;;;;;7.10;3.17;;;21.30;46.40;;;;;;5002649;28;21346;-73
2021/04/19 10:42:49;;;;;;;11.70;4.20;;;21.30;46.40;;;;;;4998435;28;20819;-73
2021/04/19 10:45:16;;;;;;;7.97;3.58;;;21.40;46.20;;;;;;5003889;28;20962;-71
2021/04/19 10:47:42;;;;;;;8.55;3.30;;;21.40;46.30;;;;;;5000979;28;20496;-74
2021/04/19 10:50:09;;;;;;;5.93;3.30;;;21.40;46.10;;;;;;5000187;28;20420;-77
2021/04/19 10:52:37;;;;;;;9.43;3.70;;;21.40;46.10;;;;;;5001490;28;20416;-74
2021/04/19 10:55:07;;;;;;;7.10;4.00;;;21.40;45.90;;;;;;5002413;28;20416;-74
2021/04/19 10:57:34;;;;;;;4.13;3.00;;;21.40;46.00;;;;;;5000831;28;20461;-74
2021/04/19 11:00:00;;;;;;;5.00;3.90;;;21.50;46.20;;;;;;4999266;28;20482;-76
2021/04/19 11:02:27;;;;;;;4.90;3.38;;;21.40;46.10;;;;;;5004043;28;20423;-73
2021/04/19 11:04:53;;;;;;;5.85;3.25;;;21.40;46.20;;;;;;4989496;28;20993;-73
2021/04/19 11:07:23;;;;;;;7.90;3.53;;;21.30;46.30;;;;;;5002438;28;21032;-73
2021/04/19 11:10:13;;;;;;;4.05;2.90;;;21.30;46.50;;;;;;4995038;28;20495;-75
2021/04/19 11:12:39;;;;;;;5.43;3.30;;;21.30;46.50;;;;;;5003629;28;20789;-72
2021/04/19 11:15:09;;;;;;;3.73;3.30;;;21.20;46.60;;;;;;5007242;28;20448;-74
2021/04/19 11:17:35;;;;;;;5.43;3.20;;;21.20;46.70;;;;;;5003344;28;20470;-73
2021/04/19 11:20:20;;;;;;;4.63;3.30;;;21.20;46.80;;;;;;5008995;28;20416;-75
2021/04/19 11:22:46;;;;;;;5.05;3.40;;;21.20;46.90;;;;;;5003477;28;20423;-73
2021/04/19 11:25:17;;;;;;;5.72;3.40;;;21.20;46.90;;;;;;5000655;28;20431;-73
2021/04/19 11:27:43;;;;;;;6.13;3.20;;;21.20;46.90;;;;;;4992130;28;20479;-72
2021/04/19 11:30:20;;;;;;;3.47;3.10;;;21.20;47.00;;;;;;4969451;28;20423;-73
2021/04/19 11:32:46;;;;;;;6.35;2.90;;;21.20;47.00;;;;;;4992991;28;20422;-73
2021/04/19 11:35:23;;;;;;;6.93;3.78;;;21.20;47.60;;;;;;4995554;28;20436;-76
2021/04/19 11:37:57;;;;;;;3.97;3.20;;;21.20;46.70;;;;;;4996491;28;20424;-73
2021/04/19 11:40:29;;;;;;;4.53;2.90;;;21.20;46.60;;;;;;5001220;28;21002;-73
2021/04/19 11:42:55;;;;;;;5.40;3.10;;;21.30;46.50;;;;;;4988116;28;20807;-74
2021/04/19 11:45:22;;;;;;;3.53;3.22;;;21.40;46.40;;;;;;4999813;28;20887;-74
2021/04/19 11:47:48;;;;;;;2.80;2.70;;;21.40;46.40;;;;;;5005977;28;20429;-75
2021/04/19 11:50:14;;;;;;;5.28;2.97;;;21.40;46.30;;;;;;4998483;28;20483;-74
2021/04/19 11:52:45;;;;;;;3.30;3.00;;;21.40;46.20;;;;;;5009164;28;21223;-78
2021/04/19 11:55:12;;;;;;;3.03;2.50;;;21.40;46.20;;;;;;5002376;28;20419;-76
2021/04/19 11:57:40;;;;;;;3.25;2.85;;;21.40;46.30;;;;;;5008777;28;20894;-74
2021/04/19 12:00:08;;;;;;;4.20;3.65;;;21.30;46.30;;;;;;4965662;28;20405;-73
2021/04/19 12:02:36;;;;;;;5.20;3.70;;;21.30;46.50;;;;;;5009133;28;21396;-75
2021/04/19 12:05:02;;;;;;;6.00;3.10;;;21.30;46.60;;;;;;5018773;28;20437;-74
2021/04/19 12:07:28;;;;;;;3.20;2.90;;;21.30;46.50;;;;;;5023317;28;20418;-76
2021/04/19 12:09:55;;;;;;;3.20;2.90;;;21.40;46.50;;;;;;5001342;28;20430;-73
2021/04/19 12:12:21;;;;;;;2.83;2.63;;;21.40;46.20;;;;;;5005548;28;20420;-73
2021/04/19 12:14:48;;;;;;;6.53;3.20;;;21.40;46.20;;;;;;5006594;28;20419;-75
2021/04/19 12:17:14;;;;;;;3.22;2.60;;;21.50;46.20;;;;;;4983214;28;20503;-76
2021/04/19 12:19:40;;;;;;;5.43;2.97;;;21.50;46.10;;;;;;4989139;28;20906;-76
2021/04/19 12:22:06;;;;;;;3.60;3.30;;;21.50;47.00;;;;;;4999508;28;20906;-73
2021/04/19 12:24:33;;;;;;;3.70;3.00;;;21.60;46.60;;;;;;5006442;28;20403;-74
2021/04/19 12:26:59;;;;;;;3.72;3.42;;;21.60;46.10;;;;;;4967708;28;20421;-74
2021/04/19 12:29:25;;;;;;;3.10;2.90;;;21.60;46.10;;;;;;4984856;28;20420;-74
2021/04/19 12:31:52;;;;;;;2.60;2.50;;;21.50;46.10;;;;;;4999185;28;20420;-73
2021/04/19 12:34:18;;;;;;;2.92;2.72;;;21.50;46.20;;;;;;4988257;28;20411;-74
2021/04/19 12:36:44;;;;;;;3.20;2.70;;;21.40;46.10;;;;;;4968720;28;20421;-74
2021/04/19 12:39:11;;;;;;;2.88;2.67;;;21.40;46.30;;;;;;4997085;28;20486;-76
2021/04/19 12:41:37;;;;;;;2.80;2.60;;;21.30;46.40;;;;;;5002524;28;20416;-75
2021/04/19 12:44:03;;;;;;;3.53;2.72;;;21.30;46.40;;;;;;4990105;28;20427;-75
2021/04/19 12:46:29;;;;;;;6.57;3.28;;;21.20;46.60;;;;;;5005466;28;20432;-73
2021/04/19 12:48:57;;;;;;;2.72;2.60;;;21.20;46.60;;;;;;5006395;28;20438;-74